Time;durP1;ratioP1;P1;durP2;ratioP2;P2;SDS_P1;SDS_P2;PMS_P1;PMS_P2;Temp;Humidity;BMP_temperature;BMP_pressure;BME280_temperature;BME280_humidity;BME280_pressure;Samples;Min_cycle;Max_cycle;Signal;HPM_P1;HPM_P2
2023/03/30 00:02:21;;;;;;;41.92;27.05;;;;;;;16.56;43.45;93291.09;5014643;28;20060;-88
2023/03/30 00:04:49;;;;;;;43.55;27.10;;;;;;;16.52;43.46;93301.53;5037574;28;20041;-88
2023/03/30 00:07:14;;;;;;;35.35;22.38;;;;;;;16.60;43.70;93291.59;5014080;28;20045;-88
2023/03/30 00:09:42;;;;;;;34.05;23.60;;;;;;;16.52;43.36;93296.81;5014593;28;20484;-89
2023/03/30 00:12:10;;;;;;;36.20;25.17;;;;;;;16.50;43.49;93276.72;5029063;28;20033;-88
2023/03/30 00:14:36;;;;;;;39.72;25.23;;;;;;;16.49;43.32;93275.25;4996330;28;20048;-88
2023/03/30 00:17:03;;;;;;;33.55;22.98;;;;;;;16.58;43.43;93281.19;5016265;28;20045;-88
2023/03/30 00:19:29;;;;;;;34.17;22.80;;;;;;;16.53;43.48;93287.41;5030225;28;20049;-88
2023/03/30 00:21:55;;;;;;;35.75;23.50;;;;;;;16.57;43.10;93268.78;5006639;28;20045;-89
2023/03/30 00:24:20;;;;;;;33.70;21.98;;;;;;;16.59;43.59;93279.94;5030850;28;20470;-88
2023/03/30 00:26:46;;;;;;;33.95;22.40;;;;;;;16.57;43.45;93274.25;5014720;28;20041;-89
2023/03/30 00:29:11;;;;;;;36.00;21.38;;;;;;;16.64;43.57;93264.81;5013243;28;20044;-89
2023/03/30 00:31:37;;;;;;;33.30;22.70;;;;;;;16.51;43.95;93257.13;5013936;28;20041;-88
2023/03/30 00:34:02;;;;;;;34.10;22.98;;;;;;;16.50;43.74;93254.91;5030598;28;20037;-88
2023/03/30 00:36:29;;;;;;;34.08;23.67;;;;;;;16.46;43.42;93250.44;5029869;28;20037;-89
2023/03/30 00:38:54;;;;;;;31.73;21.95;;;;;;;16.50;43.43;93255.66;5006770;28;20559;-88
2023/03/30 00:41:20;;;;;;;34.08;22.80;;;;;;;16.49;43.25;93256.91;5017861;28;20037;-88
2023/03/30 00:44:02;;;;;;;30.17;19.95;;;;;;;16.57;43.59;93268.78;5013542;28;20051;-89
2023/03/30 00:46:29;;;;;;;31.60;20.20;;;;;;;16.56;43.47;93258.38;5025395;28;20040;-88
2023/03/30 00:48:57;;;;;;;31.52;19.88;;;;;;;16.64;43.30;93260.09;4998702;28;20055;-88
2023/03/30 00:51:25;;;;;;;32.88;21.90;;;;;;;16.48;43.28;93249.94;4997503;28;20045;-88
2023/03/30 00:53:51;;;;;;;28.55;19.83;;;;;;;16.52;43.48;93253.16;4997774;28;20505;-88
2023/03/30 00:56:21;;;;;;;32.47;21.58;;;;;;;16.48;43.64;93254.66;5009292;28;20567;-89
2023/03/30 00:58:47;;;;;;;32.13;21.27;;;;;;;16.56;43.70;93259.09;5045837;28;20076;-88
2023/03/30 01:01:14;;;;;;;35.83;20.95;;;;;;;16.46;43.27;93247.72;5024726;28;20044;-88
2023/03/30 01:03:46;;;;;;;32.17;21.27;;;;;;;16.48;43.54;93233.56;5013544;28;20123;-88
2023/03/30 01:06:12;;;;;;;29.35;20.60;;;;;;;16.51;43.30;93232.56;5013269;28;20033;-88
2023/03/30 01:08:39;;;;;;;30.27;20.70;;;;;;;16.49;43.20;93231.59;5013148;28;20716;-88
2023/03/30 01:11:05;;;;;;;30.90;20.15;;;;;;;16.50;43.25;93233.06;5030564;28;20048;-88
2023/03/30 01:13:34;;;;;;;29.00;19.60;;;;;;;16.53;43.82;93227.38;4996662;28;20038;-88
2023/03/30 01:16:25;;;;;;;28.83;19.80;;;;;;;16.49;43.37;93215.22;5013960;28;20045;-88
2023/03/30 01:19:02;;;;;;;26.20;17.67;;;;;;;16.51;43.49;93208.03;5020061;28;20052;-88
2023/03/30 01:21:41;;;;;;;27.45;19.25;;;;;;;16.51;43.62;93201.81;5026298;28;20116;-88
2023/03/30 01:24:28;;;;;;;28.02;20.10;;;;;;;16.47;43.49;93199.34;5008175;28;20040;-88
2023/03/30 01:27:07;;;;;;;26.02;17.92;;;;;;;16.51;43.43;93216.22;5016389;28;20400;-88
2023/03/30 01:29:38;;;;;;;27.98;18.10;;;;;;;16.44;43.53;93206.59;5043196;28;20126;-88
2023/03/30 01:32:10;;;;;;;27.50;18.25;;;;;;;16.46;43.39;93208.78;5038794;28;20045;-88
2023/03/30 01:34:47;;;;;;;29.23;19.50;;;;;;;16.49;43.59;93218.69;5045580;28;20044;-88
2023/03/30 01:37:43;;;;;;;24.88;17.35;;;;;;;16.54;43.73;93214.47;5007478;28;20529;-88
2023/03/30 01:40:13;;;;;;;27.05;18.63;;;;;;;16.48;43.19;93202.81;5043427;28;20066;-88
2023/03/30 01:42:49;;;;;;;25.20;17.13;;;;;;;16.46;43.60;93214.97;4985691;28;20049;-88
2023/03/30 01:45:43;;;;;;;26.25;17.65;;;;;;;16.52;43.32;93225.88;5029470;28;20510;-88
2023/03/30 01:48:19;;;;;;;24.48;15.88;;;;;;;16.58;43.63;93223.13;5023084;28;20079;-88
2023/03/30 01:50:50;;;;;;;26.05;17.80;;;;;;;16.61;43.55;93220.16;5008498;28;20088;-88
2023/03/30 01:53:37;;;;;;;24.63;17.05;;;;;;;16.52;43.82;93212.22;5000217;28;20041;-88
2023/03/30 01:56:07;;;;;;;22.85;16.08;;;;;;;16.49;43.49;93212.50;4981601;28;20518;-89
2023/03/30 01:58:38;;;;;;;23.95;15.48;;;;;;;16.54;43.75;93217.94;4995931;28;20051;-88
2023/03/30 02:01:05;;;;;;;26.48;17.38;;;;;;;16.49;43.35;93218.69;5008342;28;20045;-88
2023/03/30 02:03:31;;;;;;;23.65;16.23;;;;;;;16.51;43.48;93205.28;5012465;28;20049;-88
2023/03/30 02:06:02;;;;;;;26.65;17.27;;;;;;;16.48;43.49;93202.81;5021794;28;20044;-88
2023/03/30 02:08:28;;;;;;;;;;;;;;;16.49;43.82;93210.50;5012978;28;20029;-88
2023/03/30 02:10:54;;;;;;;24.88;16.73;;;;;;;16.52;43.89;93212.22;5021293;28;19927;-89
2023/03/30 02:13:19;;;;;;;25.40;15.98;;;;;;;16.48;43.50;93216.47;4997449;28;20518;-89
2023/03/30 02:15:46;;;;;;;22.75;16.05;;;;;;;16.45;43.65;93210.75;5025694;28;20049;-88
2023/03/30 02:18:12;;;;;;;24.95;15.65;;;;;;;16.56;43.72;93217.44;4998648;28;20120;-88
2023/03/30 02:20:37;;;;;;;25.05;16.30;;;;;;;16.46;43.73;93220.44;5011948;28;20048;-88
2023/03/30 02:23:04;;;;;;;22.75;15.88;;;;;;;16.54;43.47;93214.47;5005805;28;20049;-88
2023/03/30 02:25:30;;;;;;;22.20;14.40;;;;;;;16.53;43.65;93219.19;5004980;28;20562;-88
2023/03/30 02:27:55;;;;;;;24.58;15.73;;;;;;;16.50;43.40;93209.25;5037265;28;20116;-88
2023/03/30 02:30:21;;;;;;;21.75;14.38;;;;;;;16.51;43.50;93208.03;5011929;28;20048;-88
2023/03/30 02:32:48;;;;;;;23.13;15.85;;;;;;;16.48;43.58;93195.38;5028415;28;20045;-89
2023/03/30 02:35:29;;;;;;;21.83;15.98;;;;;;;16.44;43.39;93194.94;5027691;28;20645;-88
2023/03/30 02:38:28;;;;;;;21.08;14.93;;;;;;;16.43;43.53;93198.91;5028964;28;20052;-88
2023/03/30 02:41:07;;;;;;;21.83;13.70;;;;;;;16.49;43.43;93190.66;5036691;28;20095;-88
2023/03/30 02:43:45;;;;;;;22.35;15.23;;;;;;;16.43;43.53;93185.25;5024618;28;20040;-88
2023/03/30 02:46:33;;;;;;;19.08;13.43;;;;;;;16.46;43.50;93176.03;5028078;28;20597;-88
2023/03/30 02:49:27;;;;;;;18.98;13.65;;;;;;;16.44;43.61;93173.09;5023032;28;20512;-88
2023/03/30 02:51:55;;;;;;;19.15;14.60;;;;;;;16.44;43.59;93192.19;5028810;28;20041;-88
2023/03/30 02:54:56;;;;;;;20.83;14.07;;;;;;;16.46;43.65;93182.25;5012710;28;20123;-88
2023/03/30 02:57:40;;;;;;;19.67;14.13;;;;;;;16.45;43.70;93177.31;5009992;28;20033;-88
2023/03/30 03:00:14;;;;;;;19.02;13.88;;;;;;;16.54;43.69;93179.00;5000455;28;20187;-88
2023/03/30 03:02:42;;;;;;;20.77;13.70;;;;;;;16.42;43.56;93178.31;5013150;28;20519;-87
2023/03/30 03:05:08;;;;;;;19.35;13.82;;;;;;;16.44;43.51;93181.28;5018510;28;20041;-88
2023/03/30 03:07:34;;;;;;;20.00;13.55;;;;;;;16.48;43.76;93173.56;5032175;28;20652;-88
2023/03/30 03:09:59;;;;;;;18.15;12.30;;;;;;;16.46;43.44;93168.59;4994645;28;20054;-88
2023/03/30 03:12:25;;;;;;;17.88;12.60;;;;;;;16.50;43.64;93168.34;4985266;28;20061;-91
2023/03/30 03:14:51;;;;;;;17.98;12.10;;;;;;;16.42;43.59;93170.13;4983993;28;20045;-91
2023/03/30 03:17:21;;;;;;;20.17;13.48;;;;;;;16.43;43.54;93169.63;4994136;28;20038;-91
2023/03/30 03:19:49;;;;;;;17.77;13.43;;;;;;;16.44;43.42;93159.47;4995450;28;20073;-91
2023/03/30 03:22:14;;;;;;;20.42;13.98;;;;;;;16.43;43.72;93155.25;4977926;28;20068;-91
2023/03/30 03:24:40;;;;;;;18.25;12.65;;;;;;;16.56;43.54;93143.75;4978607;28;20065;-91
2023/03/30 03:27:05;;;;;;;19.73;12.35;;;;;;;16.48;43.45;93140.06;4984504;28;20049;-91
2023/03/30 03:29:31;;;;;;;16.10;12.63;;;;;;;16.55;43.82;93132.09;4974448;28;20156;-91
2023/03/30 03:31:56;;;;;;;16.85;11.15;;;;;;;16.51;43.80;93134.34;4975241;28;20124;-91
2023/03/30 03:34:24;;;;;;;21.35;13.43;;;;;;;16.47;43.58;93133.88;4974573;28;20050;-92
2023/03/30 03:36:52;;;;;;;24.20;14.38;;;;;;;16.42;43.83;93121.03;4989074;28;20112;-91
2023/03/30 03:39:17;;;;;;;18.98;13.27;;;;;;;16.50;43.83;93121.94;4974955;28;20144;-90
2023/03/30 03:41:43;;;;;;;17.92;12.05;;;;;;;16.51;43.93;93128.16;5002956;28;20065;-89
2023/03/30 03:44:08;;;;;;;17.42;12.57;;;;;;;16.50;44.14;93121.22;5012682;28;20040;-91
2023/03/30 03:46:34;;;;;;;17.42;11.93;;;;;;;16.45;43.67;93126.19;5015707;28;20086;-88
2023/03/30 03:48:59;;;;;;;71.90;37.58;;;;;;;16.37;43.87;93127.25;4995493;28;20037;-90
2023/03/30 03:51:25;;;;;;;33.85;19.00;;;;;;;16.36;44.26;93133.94;4997334;28;20075;-90
2023/03/30 03:53:52;;;;;;;17.88;9.95;;;;;;;16.28;44.89;93138.44;5031810;28;20326;-91
2023/03/30 03:56:18;;;;;;;32.60;11.45;;;;;;;16.23;44.97;93129.06;4997973;28;20033;-91
2023/03/30 03:58:43;;;;;;;33.28;13.82;;;;;;;16.06;45.14;93125.66;5029836;28;20440;-92
2023/03/30 04:01:09;;;;;;;21.48;10.32;;;;;;;15.99;45.72;93128.91;4995168;28;20047;-90
2023/03/30 04:03:34;;;;;;;26.67;10.00;;;;;;;15.92;45.80;93132.16;5039147;28;20041;-91
2023/03/30 04:06:01;;;;;;;24.65;12.25;;;;;;;15.97;45.69;93126.69;5016197;28;20048;-92
2023/03/30 04:08:27;;;;;;;24.30;12.43;;;;;;;16.07;45.42;93116.97;4997356;28;20998;-90
2023/03/30 04:10:53;;;;;;;32.22;14.35;;;;;;;16.04;45.10;93123.41;4994101;28;20156;-90
2023/03/30 04:13:18;;;;;;;25.25;13.20;;;;;;;16.06;44.92;93123.66;5010509;28;20040;-90
2023/03/30 04:15:44;;;;;;;24.45;12.20;;;;;;;16.20;44.53;93123.88;5028811;28;20048;-91
2023/03/30 04:18:09;;;;;;;24.38;12.10;;;;;;;16.22;44.70;93124.84;4997718;28;20052;-92
2023/03/30 04:20:35;;;;;;;18.58;11.95;;;;;;;16.25;44.86;93128.53;4997473;28;20527;-89
2023/03/30 04:23:00;;;;;;;21.50;12.18;;;;;;;16.36;44.89;93121.03;4996021;28;20419;-90
2023/03/30 04:25:26;;;;;;;20.73;12.25;;;;;;;16.36;44.43;93107.41;5011258;28;20041;-91
2023/03/30 04:27:52;;;;;;;28.65;12.82;;;;;;;16.44;44.48;93105.63;5002700;28;20088;-91
2023/03/30 04:30:17;;;;;;;24.45;12.18;;;;;;;16.51;44.56;93120.72;5010663;28;20119;-90
2023/03/30 04:32:45;;;;;;;276.95;231.75;;;;;;;16.45;44.57;93109.81;5029315;28;20041;-90
2023/03/30 04:35:13;;;;;;;100.68;80.05;;;;;;;16.42;44.96;93121.03;4984961;28;20072;-90
2023/03/30 04:37:40;;;;;;;32.20;16.52;;;;;;;16.37;45.15;93117.06;4985725;28;20033;-90
2023/03/30 04:40:09;;;;;;;27.05;12.05;;;;;;;16.46;44.74;93107.84;4994241;28;20515;-89
2023/03/30 04:42:36;;;;;;;29.70;13.32;;;;;;;16.40;44.64;93109.88;5039060;28;20041;-89
2023/03/30 04:45:05;;;;;;;43.15;31.00;;;;;;;16.42;44.68;93104.66;4979640;28;20030;-87
2023/03/30 04:47:31;;;;;;;23.30;14.63;;;;;;;16.53;44.77;93103.84;4987310;28;20045;-87
2023/03/30 04:49:56;;;;;;;17.38;10.95;;;;;;;16.50;44.35;93102.84;4995694;28;20120;-88
2023/03/30 04:52:22;;;;;;;17.10;9.77;;;;;;;16.36;44.62;93099.22;4985354;28;20053;-88
2023/03/30 04:54:48;;;;;;;26.95;11.25;;;;;;;16.47;44.77;93101.13;4999391;28;20038;-85
2023/03/30 04:57:13;;;;;;;40.83;14.32;;;;;;;16.42;44.26;93091.00;5005984;28;20098;-86
2023/03/30 04:59:39;;;;;;;47.78;16.83;;;;;;;16.38;44.44;93099.47;4994936;28;20045;-86
2023/03/30 05:02:05;;;;;;;116.88;27.08;;;;;;;16.41;44.56;93109.38;5010414;28;20045;-88
2023/03/30 05:04:31;;;;;;;67.38;21.50;;;;;;;16.45;44.19;93095.47;4980136;28;20034;-88
2023/03/30 05:06:56;;;;;;;82.75;26.02;;;;;;;16.53;44.28;93099.13;4996036;28;20056;-88
2023/03/30 05:09:22;;;;;;;82.20;28.90;;;;;;;16.44;44.59;93096.72;5008555;28;20085;-89
2023/03/30 05:11:48;;;;;;;96.00;29.58;;;;;;;16.44;43.94;93102.91;4980015;28;20045;-89
2023/03/30 05:14:13;;;;;;;113.72;42.85;;;;;;;16.45;44.45;93095.47;5003861;28;20576;-89
2023/03/30 05:16:39;;;;;;;104.53;45.58;;;;;;;16.42;44.09;93110.84;4991345;28;20053;-90
2023/03/30 05:19:04;;;;;;;116.10;52.85;;;;;;;16.42;44.13;93118.28;4984434;28;20053;-88
2023/03/30 05:21:32;;;;;;;130.85;58.58;;;;;;;16.42;44.27;93110.84;5011456;28;20143;-88
2023/03/30 05:23:58;;;;;;;137.82;51.58;;;;;;;16.48;43.97;93110.81;4994953;28;20115;-90
2023/03/30 05:26:24;;;;;;;129.82;54.35;;;;;;;16.38;43.93;93118.56;5010985;28;20048;-90
2023/03/30 05:28:50;;;;;;;145.52;61.53;;;;;;;16.41;44.27;93122.28;4980919;28;20044;-90
2023/03/30 05:31:16;;;;;;;163.63;71.47;;;;;;;16.55;44.20;93112.25;4986090;28;20149;-90
2023/03/30 05:33:41;;;;;;;169.60;72.50;;;;;;;16.54;44.40;93113.50;4994204;28;20037;-93
2023/03/30 05:36:07;;;;;;;160.15;69.47;;;;;;;16.61;44.41;93119.16;5003238;28;20041;-89
2023/03/30 05:38:33;;;;;;;155.95;64.53;;;;;;;16.57;44.87;93121.41;4994593;28;20044;-89
2023/03/30 05:40:58;;;;;;;165.20;67.43;;;;;;;16.53;44.30;93134.59;4978096;28;20411;-90
2023/03/30 05:43:25;;;;;;;150.73;62.75;;;;;;;16.46;44.20;93133.13;5007434;28;20056;-88
2023/03/30 05:45:50;;;;;;;131.45;58.90;;;;;;;16.54;44.54;93127.88;4981576;28;20088;-90
2023/03/30 05:48:16;;;;;;;152.57;61.88;;;;;;;16.49;44.19;93128.66;4991993;28;20038;-88
2023/03/30 05:50:41;;;;;;;134.98;59.47;;;;;;;16.54;44.59;93138.06;4993757;28;20038;-87
2023/03/30 05:53:07;;;;;;;158.25;61.90;;;;;;;16.49;44.56;93147.00;4993208;28;20049;-88
2023/03/30 05:55:34;;;;;;;141.73;57.75;;;;;;;16.52;44.22;93149.47;4983380;28;20041;-87
2023/03/30 05:57:59;;;;;;;122.35;56.97;;;;;;;16.50;44.41;93159.41;5010451;28;20033;-89
2023/03/30 06:00:25;;;;;;;132.40;58.50;;;;;;;16.51;44.58;93152.72;5013935;28;20049;-89
2023/03/30 06:02:50;;;;;;;143.70;60.58;;;;;;;16.55;44.51;93158.66;4986543;28;20132;-87
2023/03/30 06:05:17;;;;;;;130.85;60.95;;;;;;;16.55;44.98;93166.84;4995705;28;20778;-91
2023/03/30 06:07:44;;;;;;;114.65;56.25;;;;;;;16.70;44.32;93162.53;4996193;28;20042;-88
2023/03/30 06:10:10;;;;;;;150.45;67.88;;;;;;;16.70;44.44;93173.47;5009365;28;20119;-89
2023/03/30 06:12:38;;;;;;;171.18;75.10;;;;;;;16.71;44.41;93171.47;4988501;28;20124;-88
2023/03/30 06:15:03;;;;;;;185.23;91.80;;;;;;;16.77;44.16;93180.38;5010255;28;20559;-89
2023/03/30 06:17:29;;;;;;;191.50;92.70;;;;;;;16.70;44.03;93184.38;4993787;28;20046;-90
2023/03/30 06:19:55;;;;;;;199.00;100.15;;;;;;;16.75;44.45;93186.34;4977356;28;20099;-91
2023/03/30 06:22:20;;;;;;;226.68;110.25;;;;;;;16.63;43.96;93190.41;4993666;28;20149;-89
2023/03/30 06:24:46;;;;;;;179.05;91.93;;;;;;;16.59;44.35;93180.97;4977398;28;20045;-88
2023/03/30 06:27:11;;;;;;;165.27;82.38;;;;;;;16.73;44.24;93169.72;4996059;28;20041;-90
2023/03/30 06:29:37;;;;;;;171.35;74.47;;;;;;;16.75;44.27;93178.16;4991355;28;20042;-90
2023/03/30 06:32:02;;;;;;;203.30;88.97;;;;;;;16.65;44.21;93189.88;5006838;28;20511;-90
2023/03/30 06:34:28;;;;;;;168.15;82.25;;;;;;;16.61;44.27;93181.94;4993929;28;20034;-89
2023/03/30 06:36:53;;;;;;;187.45;82.85;;;;;;;16.63;44.34;93187.66;4983275;28;20033;-90
2023/03/30 06:39:19;;;;;;;192.10;81.18;;;;;;;16.61;44.09;93197.56;5001510;28;20834;-88
2023/03/30 06:41:44;;;;;;;177.35;80.05;;;;;;;16.66;44.31;93183.94;4994846;28;20045;-90
2023/03/30 06:44:13;;;;;;;166.60;74.32;;;;;;;16.66;44.42;93183.94;4995003;28;20042;-89
2023/03/30 06:46:40;;;;;;;171.85;79.18;;;;;;;16.61;44.44;93187.41;5003369;28;20052;-91
2023/03/30 06:49:06;;;;;;;213.88;82.75;;;;;;;16.63;44.34;93178.72;5008797;28;20256;-89
2023/03/30 06:51:34;;;;;;;174.30;78.35;;;;;;;16.76;44.78;93176.91;4996270;28;20139;-94
2023/03/30 06:54:00;;;;;;;189.63;81.50;;;;;;;16.61;44.81;93179.22;5007058;28;20570;-90
2023/03/30 06:56:25;;;;;;;165.20;75.78;;;;;;;16.66;44.75;93196.84;4990584;28;20045;-95
2023/03/30 06:58:51;;;;;;;153.07;71.43;;;;;;;16.70;44.65;93194.56;5024456;28;20072;-92
2023/03/30 07:01:17;;;;;;;151.23;67.35;;;;;;;16.75;44.54;93199.25;4994926;28;20404;-91
2023/03/30 07:03:46;;;;;;;169.52;75.68;;;;;;;16.67;44.53;93193.56;5012528;28;20128;-92
2023/03/30 07:06:12;;;;;;;186.98;78.60;;;;;;;16.62;44.73;93204.50;4951343;28;20054;-91
2023/03/30 07:08:39;;;;;;;196.20;79.32;;;;;;;16.66;44.79;93196.84;4919140;29;20043;-89
2023/03/30 07:11:05;;;;;;;216.05;86.20;;;;;;;16.64;44.81;93205.53;4951284;28;20053;-89
2023/03/30 07:13:48;;;;;;;203.18;82.60;;;;;;;16.67;44.41;93212.69;4944318;28;20097;-91
2023/03/30 07:16:14;;;;;;;168.73;77.43;;;;;;;16.71;44.64;93226.06;4958755;28;20102;-91
2023/03/30 07:18:40;;;;;;;166.70;67.63;;;;;;;16.71;44.52;93217.88;4934867;28;20042;-90
2023/03/30 07:21:05;;;;;;;155.32;65.35;;;;;;;16.71;44.49;93220.59;4982637;28;20043;-94
2023/03/30 07:23:32;;;;;;;164.52;68.45;;;;;;;16.71;44.88;93221.34;4963814;28;20039;-91
2023/03/30 07:25:59;;;;;;;349.13;107.80;;;;;;;16.75;44.60;93221.81;4922816;28;20050;-93
2023/03/30 07:28:25;;;;;;;211.57;87.63;;;;;;;16.69;44.45;93228.56;4981565;28;20488;-89
2023/03/30 07:30:51;;;;;;;181.18;77.82;;;;;;;16.67;44.57;93214.69;4939054;28;20046;-89
2023/03/30 07:33:17;;;;;;;208.07;87.03;;;;;;;16.64;44.40;93218.44;4958594;28;20052;-91
2023/03/30 07:35:45;;;;;;;218.55;94.03;;;;;;;16.64;44.29;93215.69;4942969;28;20045;-92
2023/03/30 07:38:11;;;;;;;230.70;97.88;;;;;;;16.63;44.75;93206.00;4990374;28;20041;-90
2023/03/30 07:40:37;;;;;;;190.95;92.65;;;;;;;16.67;45.11;93206.50;5013678;28;20122;-90
2023/03/30 07:43:02;;;;;;;238.48;107.53;;;;;;;16.63;44.68;93208.72;5010475;28;20434;-89
2023/03/30 07:45:28;;;;;;;257.85;115.10;;;;;;;16.65;44.51;93206.25;5000652;28;20137;-89
2023/03/30 07:47:53;;;;;;;250.65;109.80;;;;;;;16.64;44.32;93204.78;4997285;28;20037;-89
2023/03/30 07:50:19;;;;;;;235.73;104.70;;;;;;;16.72;44.67;93209.19;4980369;28;20037;-91
2023/03/30 07:52:44;;;;;;;281.50;127.63;;;;;;;16.64;44.47;93210.97;4991602;28;20041;-90
2023/03/30 07:55:10;;;;;;;285.55;124.55;;;;;;;16.72;44.91;93214.66;4983432;28;20030;-87
2023/03/30 07:57:35;;;;;;;295.08;127.70;;;;;;;16.75;44.41;93216.38;5003927;28;20400;-90
2023/03/30 08:00:04;;;;;;;295.48;135.07;;;;;;;16.75;44.44;93226.53;4999950;28;20037;-88
2023/03/30 08:02:32;;;;;;;306.23;137.52;;;;;;;16.78;44.82;93217.34;4985666;28;20037;-88
2023/03/30 08:04:58;;;;;;;291.15;134.20;;;;;;;16.73;45.14;93220.84;5008151;28;20041;-93
2023/03/30 08:07:26;;;;;;;302.23;139.52;;;;;;;16.75;45.36;93210.91;5028301;23;20069;-91
2023/03/30 08:09:51;;;;;;;285.75;136.70;;;;;;;16.83;45.05;93216.59;4972227;28;20038;-89
2023/03/30 08:12:17;;;;;;;270.40;125.90;;;;;;;16.81;44.85;93212.88;5004823;28;20066;-87
2023/03/30 08:14:43;;;;;;;307.73;135.27;;;;;;;16.68;44.96;93216.16;4962446;28;20034;-89
2023/03/30 08:17:08;;;;;;;254.13;117.32;;;;;;;16.82;45.46;93220.56;4977439;28;20192;-92
2023/03/30 08:19:33;;;;;;;261.10;125.30;;;;;;;16.76;44.89;93214.38;4995982;28;20042;-94
2023/03/30 08:22:00;;;;;;;261.38;115.40;;;;;;;16.79;46.05;93214.13;4974513;28;20053;-89
2023/03/30 08:24:26;;;;;;;165.90;75.18;;;;;;;16.74;47.62;93209.44;4976006;28;20185;-89
2023/03/30 08:26:51;;;;;;;171.77;73.78;;;;;;;16.65;47.80;93207.00;4993418;28;20045;-89
2023/03/30 08:29:17;;;;;;;156.13;72.00;;;;;;;16.66;48.26;93196.84;5009670;28;20052;-89
2023/03/30 08:31:44;;;;;;;141.43;55.72;;;;;;;16.62;48.68;93205.25;4977303;28;20632;-88
2023/03/30 08:34:10;;;;;;;172.43;60.80;;;;;;;16.58;48.94;93190.38;4983342;28;20446;-88
2023/03/30 08:36:36;;;;;;;143.77;55.47;;;;;;;16.58;49.36;93201.31;4991882;28;20042;-87
2023/03/30 08:39:01;;;;;;;121.97;49.03;;;;;;;16.59;49.48;93200.06;4992589;28;20037;-88
2023/03/30 08:41:27;;;;;;;122.30;49.38;;;;;;;16.59;49.80;93205.50;4997437;23;20045;-90
2023/03/30 08:44:13;;;;;;;121.45;47.90;;;;;;;16.50;49.96;93200.34;5021432;28;20064;-89
2023/03/30 08:46:41;;;;;;;120.70;44.33;;;;;;;16.57;50.44;93197.09;5035278;28;20108;-91
2023/03/30 08:49:10;;;;;;;106.43;39.72;;;;;;;16.51;50.30;93188.91;5020634;28;20079;-89
2023/03/30 08:51:38;;;;;;;97.45;40.05;;;;;;;16.48;50.68;93189.94;4994599;28;20049;-91
2023/03/30 08:54:05;;;;;;;114.90;38.35;;;;;;;16.44;50.85;93187.47;4996231;28;20049;-89
2023/03/30 08:56:32;;;;;;;100.90;37.03;;;;;;;16.51;50.81;93178.00;5027571;28;20049;-89
2023/03/30 08:59:15;;;;;;;114.40;35.80;;;;;;;16.44;51.12;93171.13;5015932;28;20076;-90
2023/03/30 09:01:52;;;;;;;98.93;35.03;;;;;;;16.45;51.18;93169.84;5015685;28;20128;-90
2023/03/30 09:04:38;;;;;;;68.25;27.38;;;;;;;16.52;51.43;93162.38;5029043;28;20041;-90
2023/03/30 09:07:16;;;;;;;89.30;29.92;;;;;;;16.53;51.54;93172.06;5033508;28;20615;-88
2023/03/30 09:09:43;;;;;;;76.80;29.83;;;;;;;16.62;51.38;93160.84;5005139;28;20045;-92
2023/03/30 09:12:33;;;;;;;57.17;25.67;;;;;;;16.53;51.80;93156.41;5013255;28;20077;-90
2023/03/30 09:15:01;;;;;;;87.43;31.33;;;;;;;16.61;51.52;93153.91;5013591;28;20037;-90
2023/03/30 09:17:37;;;;;;;73.13;30.20;;;;;;;16.50;52.10;93149.25;5001082;28;20049;-90
2023/03/30 09:20:06;;;;;;;149.85;35.67;;;;;;;16.53;51.67;93133.84;5021679;28;20041;-89
2023/03/30 09:22:40;;;;;;;87.68;32.97;;;;;;;16.58;51.64;93122.91;4999162;28;20030;-91
2023/03/30 09:25:17;;;;;;;98.78;41.85;;;;;;;16.58;50.51;93116.72;5014749;28;20033;-89
2023/03/30 09:27:57;;;;;;;109.18;41.25;;;;;;;16.65;50.55;93113.47;5033096;28;20048;-90
2023/03/30 09:30:28;;;;;;;109.15;46.35;;;;;;;16.68;50.64;93104.25;5017219;28;20051;-91
2023/03/30 09:33:05;;;;;;;119.43;46.72;;;;;;;16.66;49.82;93079.47;5018026;28;20122;-91
2023/03/30 09:35:38;;;;;;;100.70;47.33;;;;;;;16.67;50.33;93076.22;5012307;28;20045;-90
2023/03/30 09:38:03;;;;;;;97.47;46.22;;;;;;;16.63;49.99;93075.78;5013427;28;20044;-89
2023/03/30 09:40:53;;;;;;;94.18;43.67;;;;;;;16.66;50.10;93085.69;5033144;28;20037;-90
2023/03/30 09:43:34;;;;;;;111.00;46.47;;;;;;;16.70;49.71;93071.72;5010858;28;20069;-90
2023/03/30 09:46:01;;;;;;;98.57;41.13;;;;;;;16.67;49.58;93073.50;4998551;28;20049;-90
2023/03/30 09:48:28;;;;;;;138.80;49.10;;;;;;;16.70;50.09;93069.00;4992282;28;20068;-91
2023/03/30 09:50:53;;;;;;;97.07;44.25;;;;;;;16.87;50.26;93079.81;4987203;28;20052;-91
2023/03/30 09:53:24;;;;;;;104.53;41.92;;;;;;;16.82;50.05;93075.88;4991894;28;20042;-90
2023/03/30 09:55:54;;;;;;;100.15;43.20;;;;;;;16.79;49.98;93072.16;4996652;28;20171;-89
2023/03/30 09:58:29;;;;;;;102.85;43.58;;;;;;;16.78;50.17;93051.56;4974617;28;20073;-90
2023/03/30 10:01:07;;;;;;;115.15;48.13;;;;;;;16.78;49.23;93059.03;4979868;28;20042;-88
2023/03/30 10:03:33;;;;;;;177.70;69.90;;;;;;;16.72;49.31;93042.69;5013922;28;20040;-93
2023/03/30 10:06:07;;;;;;;135.45;63.17;;;;;;;16.70;49.37;93034.25;4980436;28;20049;-92
2023/03/30 10:08:40;;;;;;;137.18;65.18;;;;;;;16.81;50.53;93025.25;4987844;28;20094;-92
2023/03/30 10:11:06;;;;;;;157.55;77.80;;;;;;;16.77;49.75;93011.16;4996163;28;20096;-90
2023/03/30 10:13:34;;;;;;;190.88;93.22;;;;;;;16.87;50.58;93006.09;5000108;28;20037;-90
2023/03/30 10:16:15;;;;;;;182.32;92.55;;;;;;;16.79;49.89;93000.47;5031575;28;20069;-90
2023/03/30 10:18:44;;;;;;;228.98;115.15;;;;;;;16.78;49.75;93007.91;5023398;28;20038;-94
2023/03/30 10:21:14;;;;;;;210.43;92.32;;;;;;;16.77;50.75;93005.69;4992866;28;20045;-91
2023/03/30 10:23:41;;;;;;;178.93;83.83;;;;;;;16.77;51.43;93020.06;5009896;28;20417;-90
2023/03/30 10:26:17;;;;;;;165.32;79.47;;;;;;;16.78;51.24;93018.09;4992565;28;20049;-92
2023/03/30 10:28:53;;;;;;;190.75;89.10;;;;;;;16.77;50.59;93022.06;4992756;28;20145;-89
2023/03/30 10:31:18;;;;;;;205.90;89.88;;;;;;;16.77;50.79;93016.59;5008327;28;20124;-90
2023/03/30 10:33:44;;;;;;;185.85;88.88;;;;;;;16.87;51.16;93009.56;5009572;28;20527;-89
2023/03/30 10:36:10;;;;;;;181.13;87.63;;;;;;;16.84;50.83;93013.31;4976028;28;20052;-91
2023/03/30 10:38:35;;;;;;;201.10;96.68;;;;;;;16.90;51.06;93007.78;4991783;28;20488;-91
2023/03/30 10:41:06;;;;;;;171.40;91.82;;;;;;;16.87;50.41;92989.72;4979530;28;20308;-90
2023/03/30 10:43:31;;;;;;;171.35;87.07;;;;;;;16.87;50.22;92981.53;4996097;28;20037;-90
2023/03/30 10:45:58;;;;;;;171.43;89.88;;;;;;;16.96;50.32;92986.66;4989031;28;20310;-90
2023/03/30 10:48:37;;;;;;;168.20;83.82;;;;;;;16.86;49.72;92993.72;4996127;28;20146;-90
2023/03/30 10:51:33;;;;;;;157.65;82.10;;;;;;;16.83;49.80;92981.81;5027067;28;20040;-90
2023/03/30 10:54:23;;;;;;;144.18;74.50;;;;;;;16.80;49.54;92982.84;5023207;28;20056;-89
2023/03/30 10:56:51;;;;;;;174.45;79.40;;;;;;;16.77;49.68;92968.22;5004719;28;20060;-91
2023/03/30 10:59:26;;;;;;;174.45;83.57;;;;;;;16.88;50.33;92950.25;5011776;28;20045;-89
2023/03/30 11:02:29;;;;;;;165.73;81.88;;;;;;;16.89;49.95;92943.53;5028694;28;20553;-90
2023/03/30 11:05:03;;;;;;;150.15;71.60;;;;;;;16.86;49.43;92950.03;5044213;28;20045;-90
2023/03/30 11:07:40;;;;;;;198.70;74.85;;;;;;;16.91;50.11;92936.31;5011860;28;20330;-90
2023/03/30 11:10:10;;;;;;;173.23;68.70;;;;;;;16.91;49.08;92938.28;5011288;28;20037;-89
2023/03/30 11:12:39;;;;;;;190.93;73.50;;;;;;;16.87;49.04;92926.94;5026363;28;20367;-89
2023/03/30 11:15:17;;;;;;;165.65;70.85;;;;;;;16.87;49.64;92929.66;4998300;28;20064;-90
2023/03/30 11:17:56;;;;;;;163.18;70.78;;;;;;;16.96;49.97;92916.41;5018770;28;20226;-90
2023/03/30 11:20:31;;;;;;;167.48;70.13;;;;;;;16.91;49.20;92914.47;5011838;28;20041;-89
2023/03/30 11:23:04;;;;;;;158.85;66.97;;;;;;;16.89;49.22;92908.06;5020174;28;20041;-91